createdAt,value
2022-08-29T00:00:31.883Z,10.23
2022-08-29T00:03:00.234Z,9.27
2022-08-29T00:05:31.819Z,10.20
2022-08-29T00:07:59.503Z,10.13
2022-08-29T00:10:26.768Z,9.67
2022-08-29T00:12:54.531Z,9.40
2022-08-29T00:15:25.187Z,9.60
2022-08-29T00:17:53.209Z,9.57
2022-08-29T00:20:21.348Z,9.60
2022-08-29T00:22:54.261Z,9.53
2022-08-29T00:25:25.976Z,9.77
2022-08-29T00:27:52.827Z,10.13
2022-08-29T00:30:20.678Z,10.30
2022-08-29T00:32:47.515Z,9.80
2022-08-29T00:35:16.016Z,9.93
2022-08-29T00:37:42.865Z,9.17
2022-08-29T00:40:13.558Z,9.20
2022-08-29T00:42:40.614Z,9.67
2022-08-29T00:45:08.483Z,10.53
2022-08-29T00:47:36.913Z,10.13
2022-08-29T00:50:07.555Z,10.13
2022-08-29T00:52:37.642Z,10.13
2022-08-29T00:55:11.168Z,9.93
2022-08-29T00:57:40.336Z,9.90
2022-08-29T01:00:07.487Z,9.33
2022-08-29T01:02:38.530Z,10.30
2022-08-29T01:05:09.247Z,9.20
2022-08-29T01:07:36.739Z,10.00
2022-08-29T01:10:13.306Z,9.50
2022-08-29T01:12:41.072Z,9.87
2022-08-29T01:15:10.714Z,9.73
2022-08-29T01:17:40.508Z,10.07
2022-08-29T01:20:13.500Z,9.80
2022-08-29T01:22:53.788Z,10.47
2022-08-29T01:25:22.409Z,9.50
2022-08-29T01:27:57.207Z,10.10
2022-08-29T01:30:24.176Z,9.87
2022-08-29T01:32:51.139Z,9.77
2022-08-29T01:35:18.034Z,9.27
2022-08-29T01:37:45.093Z,9.03
2022-08-29T01:40:12.840Z,9.37
2022-08-29T01:42:40.187Z,10.23
2022-08-29T01:45:09.957Z,9.80
2022-08-29T01:47:38.719Z,10.07
2022-08-29T01:50:14.962Z,9.47
2022-08-29T01:52:42.765Z,9.43
2022-08-29T01:55:09.658Z,9.50
2022-08-29T01:57:37.633Z,9.37
2022-08-29T02:00:05.738Z,9.17
2022-08-29T02:02:33.094Z,9.20
2022-08-29T02:05:00.091Z,9.20
2022-08-29T02:07:27.192Z,9.77
2022-08-29T02:09:54.103Z,9.13
2022-08-29T02:12:21.300Z,9.17
2022-08-29T02:14:48.399Z,9.37
2022-08-29T02:17:15.166Z,9.67
2022-08-29T02:19:42.260Z,10.57
2022-08-29T02:22:09.446Z,9.23
2022-08-29T02:24:36.468Z,9.50
2022-08-29T02:27:03.592Z,9.57
2022-08-29T02:29:30.916Z,9.70
2022-08-29T02:32:05.432Z,9.43
2022-08-29T02:34:33.778Z,9.87
2022-08-29T02:37:01.583Z,9.70
2022-08-29T02:39:28.446Z,9.60
2022-08-29T02:41:55.173Z,10.17
2022-08-29T02:44:22.019Z,10.17
2022-08-29T02:46:48.950Z,9.20
2022-08-29T02:49:15.988Z,9.93
2022-08-29T02:51:42.907Z,9.40
2022-08-29T02:54:09.751Z,10.33
2022-08-29T02:56:36.722Z,10.13
2022-08-29T02:59:03.713Z,9.73
2022-08-29T03:01:31.313Z,10.07
2022-08-29T03:03:58.233Z,10.50
2022-08-29T03:06:25.134Z,10.50
2022-08-29T03:08:54.042Z,10.60
2022-08-29T03:11:21.262Z,9.67
2022-08-29T03:13:48.183Z,10.33
2022-08-29T03:16:15.541Z,10.47
2022-08-29T03:18:42.961Z,11.27
2022-08-29T03:21:16.876Z,11.30
2022-08-29T03:23:43.703Z,10.53
2022-08-29T03:26:10.534Z,11.43
2022-08-29T03:28:37.376Z,11.03
2022-08-29T03:31:04.207Z,10.40
2022-08-29T03:33:31.022Z,11.10
2022-08-29T03:35:57.794Z,11.37
2022-08-29T03:38:24.679Z,11.03
2022-08-29T03:40:51.415Z,10.83
2022-08-29T03:43:21.816Z,11.43
2022-08-29T03:45:49.619Z,11.07
2022-08-29T03:48:16.399Z,10.87
2022-08-29T03:50:43.178Z,11.17
2022-08-29T03:53:10.008Z,10.53
2022-08-29T03:55:37.397Z,10.43
2022-08-29T03:58:04.141Z,11.50
2022-08-29T04:00:30.980Z,10.97
2022-08-29T04:03:02.412Z,10.53
2022-08-29T04:05:29.251Z,11.43
2022-08-29T04:07:57.247Z,10.90
2022-08-29T04:10:42.357Z,11.17
2022-08-29T04:13:09.496Z,11.50
2022-08-29T04:15:37.327Z,11.30
2022-08-29T04:18:10.334Z,10.47
2022-08-29T04:20:38.540Z,10.00
2022-08-29T04:23:05.999Z,10.17
2022-08-29T04:25:37.331Z,9.97
2022-08-29T04:28:08.852Z,9.27
2022-08-29T04:30:36.225Z,9.43
2022-08-29T04:33:03.109Z,9.40
2022-08-29T04:35:30.064Z,9.43
2022-08-29T04:37:57.069Z,8.90
2022-08-29T04:40:23.923Z,8.77
2022-08-29T04:42:51.256Z,9.73
2022-08-29T04:45:19.891Z,8.77
2022-08-29T04:47:46.974Z,9.47
2022-08-29T04:50:15.721Z,9.33
2022-08-29T04:52:43.775Z,9.53
2022-08-29T04:55:11.367Z,10.07
2022-08-29T04:57:38.236Z,9.30
2022-08-29T05:00:07.199Z,9.10
2022-08-29T05:02:34.122Z,9.60
2022-08-29T05:05:00.969Z,9.37
2022-08-29T05:07:27.718Z,10.07
2022-08-29T05:09:58.816Z,9.33
2022-08-29T05:12:26.017Z,9.03
2022-08-29T05:14:53.678Z,10.30
2022-08-29T05:17:21.349Z,10.30
2022-08-29T05:19:49.186Z,9.00
2022-08-29T05:22:16.982Z,9.67
2022-08-29T05:24:43.847Z,8.53
2022-08-29T05:27:12.172Z,8.50
2022-08-29T05:29:40.210Z,8.30
2022-08-29T05:32:08.480Z,7.77
2022-08-29T05:34:35.770Z,7.80
2022-08-29T05:37:04.159Z,6.03
2022-08-29T05:39:31.129Z,7.63
2022-08-29T05:41:58.171Z,6.93
2022-08-29T05:44:25.515Z,6.07
2022-08-29T05:46:52.625Z,6.43
2022-08-29T05:49:19.424Z,6.83
2022-08-29T05:51:46.232Z,6.30
2022-08-29T05:54:13.119Z,6.10
2022-08-29T05:56:40.131Z,5.90
2022-08-29T05:59:07.084Z,6.17
2022-08-29T06:01:34.585Z,5.77
2022-08-29T06:04:01.512Z,5.70
2022-08-29T06:06:28.894Z,6.23
2022-08-29T06:08:56.587Z,6.07
2022-08-29T06:11:30.735Z,5.83
2022-08-29T06:13:59.237Z,6.30
2022-08-29T06:16:27.212Z,6.13
2022-08-29T06:18:54.207Z,5.43
2022-08-29T06:21:21.951Z,6.03
2022-08-29T06:23:51.483Z,5.37
2022-08-29T06:26:19.604Z,5.53
2022-08-29T06:28:46.993Z,5.37
2022-08-29T06:31:15.330Z,6.20
2022-08-29T06:33:42.158Z,5.37
2022-08-29T06:36:09.817Z,5.53
2022-08-29T06:38:36.942Z,5.43
2022-08-29T06:41:07.810Z,5.60
2022-08-29T06:43:34.717Z,5.80
2022-08-29T06:46:01.693Z,5.73
2022-08-29T06:48:29.749Z,5.33
2022-08-29T06:50:57.452Z,5.00
2022-08-29T06:53:32.038Z,5.70
2022-08-29T06:56:03.326Z,5.33
2022-08-29T06:58:30.134Z,5.60
2022-08-29T07:00:56.903Z,5.47
2022-08-29T07:03:23.753Z,5.37
2022-08-29T07:05:53.767Z,5.37
2022-08-29T07:08:20.933Z,5.27
2022-08-29T07:10:47.785Z,6.00
2022-08-29T07:13:14.800Z,5.80
2022-08-29T07:15:41.783Z,5.50
2022-08-29T07:18:08.591Z,5.20
2022-08-29T07:20:37.532Z,4.93
2022-08-29T07:23:04.299Z,5.37
2022-08-29T07:25:31.168Z,6.07
2022-08-29T07:27:57.963Z,5.70
2022-08-29T07:30:25.190Z,5.00
2022-08-29T07:32:52.253Z,5.27
2022-08-29T07:35:29.553Z,5.10
2022-08-29T07:37:57.983Z,4.83
2022-08-29T07:40:24.777Z,5.30
2022-08-29T07:42:51.634Z,5.10
2022-08-29T07:45:18.490Z,5.00
2022-08-29T07:47:45.524Z,5.53
2022-08-29T07:50:13.776Z,5.07
2022-08-29T07:52:40.551Z,5.20
2022-08-29T07:55:07.622Z,5.50
2022-08-29T07:57:34.485Z,5.70
2022-08-29T08:00:09.945Z,5.07
2022-08-29T08:02:39.234Z,5.53
2022-08-29T08:05:06.754Z,5.23
2022-08-29T08:07:34.988Z,4.97
2022-08-29T08:10:02.339Z,5.23
2022-08-29T08:12:29.315Z,5.00
2022-08-29T08:14:57.009Z,5.53
2022-08-29T08:17:23.917Z,5.20
2022-08-29T08:19:50.684Z,4.67
2022-08-29T08:22:17.482Z,6.10
2022-08-29T08:24:44.915Z,5.70
2022-08-29T08:27:11.814Z,5.27
2022-08-29T08:29:38.915Z,5.20
2022-08-29T08:32:06.026Z,4.83
2022-08-29T08:34:35.731Z,5.20
2022-08-29T08:37:07.034Z,5.00
2022-08-29T08:39:34.441Z,5.57
2022-08-29T08:42:10.244Z,4.77
2022-08-29T08:44:56.478Z,4.93
2022-08-29T08:47:28.908Z,5.43
2022-08-29T08:50:01.330Z,5.20
2022-08-29T08:52:40.264Z,5.23
2022-08-29T08:55:28.233Z,4.93
2022-08-29T08:58:01.484Z,4.93
2022-08-29T09:00:30.314Z,4.50
2022-08-29T09:03:04.784Z,4.93
2022-08-29T09:05:37.653Z,5.00
2022-08-29T09:08:06.379Z,4.80
2022-08-29T09:11:03.200Z,4.33
2022-08-29T09:13:51.136Z,4.67
2022-08-29T09:16:29.188Z,4.77
2022-08-29T09:19:03.107Z,5.03
2022-08-29T09:21:41.983Z,4.83
2022-08-29T09:24:12.304Z,4.93
2022-08-29T09:26:39.282Z,4.90
2022-08-29T09:29:09.834Z,4.80
2022-08-29T09:31:37.534Z,4.60
2022-08-29T09:34:12.093Z,4.77
2022-08-29T09:36:47.326Z,5.07
2022-08-29T09:39:14.882Z,4.83
2022-08-29T09:41:42.751Z,4.38
2022-08-29T09:44:15.203Z,5.22
2022-08-29T09:46:42.799Z,4.13
2022-08-29T09:49:13.755Z,4.40
2022-08-29T09:51:42.677Z,4.13
2022-08-29T09:54:17.972Z,4.05
2022-08-29T09:57:07.919Z,4.07
2022-08-29T09:59:40.275Z,4.22
2022-08-29T10:02:14.795Z,4.32
2022-08-29T10:04:43.032Z,4.32
2022-08-29T10:07:16.921Z,4.63
2022-08-29T10:09:54.955Z,4.40
2022-08-29T10:12:48.787Z,4.50
2022-08-29T10:15:47.041Z,3.80
2022-08-29T10:18:28.952Z,3.90
2022-08-29T10:21:02.234Z,4.45
2022-08-29T10:23:41.424Z,3.80
2022-08-29T10:26:18.082Z,4.20
2022-08-29T10:28:48.186Z,4.30
2022-08-29T10:31:31.375Z,4.22
2022-08-29T10:33:58.229Z,3.92
2022-08-29T10:36:31.469Z,4.60
2022-08-29T10:39:04.315Z,4.18
2022-08-29T10:41:33.038Z,4.32
2022-08-29T10:44:02.955Z,3.97
2022-08-29T10:46:30.121Z,4.03
2022-08-29T10:49:26.310Z,3.95
2022-08-29T10:51:53.101Z,3.90
2022-08-29T10:54:26.553Z,4.13
2022-08-29T10:56:54.914Z,4.65
2022-08-29T10:59:46.276Z,4.50
2022-08-29T11:02:22.055Z,4.10
2022-08-29T11:04:50.778Z,3.90
2022-08-29T11:07:19.475Z,3.97
2022-08-29T11:10:04.741Z,3.17
2022-08-29T11:12:37.580Z,3.50
2022-08-29T11:15:23.246Z,3.65
2022-08-29T11:18:01.863Z,4.07
2022-08-29T11:20:31.927Z,3.55
2022-08-29T11:23:02.056Z,3.75
2022-08-29T11:25:30.261Z,3.70
2022-08-29T11:28:06.401Z,4.28
2022-08-29T11:30:36.318Z,4.30
2022-08-29T11:33:21.893Z,3.78
2022-08-29T11:35:51.669Z,4.30
2022-08-29T11:38:28.941Z,3.83
2022-08-29T11:41:27.719Z,3.30
2022-08-29T11:44:26.310Z,3.50
2022-08-29T11:46:56.638Z,4.20
2022-08-29T11:49:30.182Z,4.00
2022-08-29T11:51:59.676Z,3.60
2022-08-29T11:54:28.454Z,3.85
2022-08-29T11:57:02.739Z,3.65
2022-08-29T12:00:02.600Z,3.95
2022-08-29T12:02:40.086Z,3.85
2022-08-29T12:05:16.426Z,3.60
2022-08-29T12:07:51.908Z,3.63
2022-08-29T12:10:24.741Z,3.75
2022-08-29T12:12:58.904Z,2.95
2022-08-29T12:15:41.048Z,4.00
2022-08-29T12:18:07.792Z,3.63
2022-08-29T12:20:38.577Z,3.58
2022-08-29T12:23:17.889Z,3.25
2022-08-29T12:26:15.894Z,3.45
2022-08-29T12:28:43.848Z,3.63
2022-08-29T12:31:20.826Z,3.55
2022-08-29T12:33:56.224Z,3.45
2022-08-29T12:36:52.060Z,3.30
2022-08-29T12:39:19.864Z,3.20
2022-08-29T12:42:05.650Z,3.50
2022-08-29T12:44:35.023Z,3.53
2022-08-29T12:47:04.775Z,3.50
2022-08-29T12:49:40.443Z,3.63
2022-08-29T12:52:15.373Z,3.15
2022-08-29T12:54:42.333Z,3.30
2022-08-29T12:57:19.553Z,3.30
2022-08-29T12:59:47.790Z,3.03
2022-08-29T13:02:22.966Z,3.30
2022-08-29T13:04:49.913Z,3.50
2022-08-29T13:07:17.943Z,2.92
2022-08-29T13:09:55.711Z,3.50
2022-08-29T13:12:22.563Z,3.20
2022-08-29T13:14:50.879Z,3.38
2022-08-29T13:17:19.313Z,3.00
2022-08-29T13:20:05.218Z,3.22
2022-08-29T13:22:32.142Z,2.83
2022-08-29T13:25:03.858Z,3.33
2022-08-29T13:27:30.750Z,3.15
2022-08-29T13:30:01.285Z,3.53
2022-08-29T13:32:28.212Z,2.97
2022-08-29T13:35:00.932Z,3.50
2022-08-29T13:37:29.895Z,3.55
2022-08-29T13:39:56.919Z,3.50
2022-08-29T13:42:28.460Z,3.63
2022-08-29T13:44:55.274Z,3.70
2022-08-29T13:47:26.302Z,3.60
2022-08-29T13:50:00.523Z,3.42
2022-08-29T13:52:31.365Z,3.70
2022-08-29T13:54:59.382Z,3.57
2022-08-29T13:57:29.031Z,3.70
2022-08-29T13:59:56.707Z,3.53
2022-08-29T14:02:25.089Z,3.23
2022-08-29T14:04:52.345Z,4.40
2022-08-29T14:07:20.916Z,4.13
2022-08-29T14:09:47.800Z,3.80
2022-08-29T14:12:14.892Z,4.00
2022-08-29T14:14:42.667Z,4.30
2022-08-29T14:17:09.743Z,3.63
2022-08-29T14:19:41.349Z,4.00
2022-08-29T14:22:10.384Z,3.77
2022-08-29T14:24:37.664Z,3.73
2022-08-29T14:27:04.753Z,3.60
2022-08-29T14:29:32.355Z,4.30
2022-08-29T14:31:59.664Z,3.73
2022-08-29T14:34:32.137Z,3.73
2022-08-29T14:36:59.831Z,4.13
2022-08-29T14:39:26.762Z,4.27
2022-08-29T14:41:54.013Z,3.70
2022-08-29T14:44:21.868Z,4.20
2022-08-29T14:46:49.372Z,3.80
2022-08-29T14:49:16.418Z,4.20
2022-08-29T14:51:44.333Z,4.00
2022-08-29T14:54:11.685Z,3.50
2022-08-29T14:56:54.490Z,4.10
2022-08-29T14:59:22.017Z,3.90
2022-08-29T15:01:53.766Z,3.93
2022-08-29T15:04:35.752Z,3.70
2022-08-29T15:07:08.792Z,4.10
2022-08-29T15:09:36.179Z,4.10
2022-08-29T15:12:03.225Z,3.90
2022-08-29T15:14:30.603Z,3.60
2022-08-29T15:16:57.667Z,4.07
2022-08-29T15:20:15.860Z,3.90
2022-08-29T15:22:12.143Z,3.77
2022-08-29T15:24:39.114Z,3.90
2022-08-29T15:27:06.470Z,4.50
2022-08-29T15:29:34.036Z,3.50
2022-08-29T15:32:01.153Z,3.93
2022-08-29T15:34:28.692Z,3.50
2022-08-29T15:36:56.420Z,3.90
2022-08-29T15:39:25.368Z,4.40
2022-08-29T15:41:52.188Z,3.77
2022-08-29T15:44:19.208Z,3.40
2022-08-29T15:46:50.877Z,3.80
2022-08-29T15:49:18.835Z,3.70
2022-08-29T15:51:45.866Z,3.37
2022-08-29T15:54:12.956Z,3.77
2022-08-29T15:56:40.160Z,3.20
2022-08-29T15:59:08.556Z,3.70
2022-08-29T16:01:45.719Z,4.07
2022-08-29T16:04:13.560Z,3.90
2022-08-29T16:06:40.424Z,3.47
2022-08-29T16:09:15.040Z,3.90
2022-08-29T16:11:42.609Z,3.60
2022-08-29T16:16:57.193Z,3.87
2022-08-29T16:19:23.937Z,4.07
2022-08-29T16:21:50.898Z,4.10
2022-08-29T16:24:18.325Z,3.60
2022-08-29T16:26:45.903Z,4.23
2022-08-29T16:29:13.217Z,3.73
2022-08-29T16:31:40.036Z,4.00
2022-08-29T16:34:06.918Z,3.40
2022-08-29T16:36:34.129Z,3.50
2022-08-29T16:39:00.967Z,3.90
2022-08-29T16:41:28.775Z,4.03
2022-08-29T16:43:55.528Z,3.83
2022-08-29T16:46:23.709Z,3.87
2022-08-29T16:48:50.759Z,3.57
2022-08-29T16:51:19.160Z,3.87
2022-08-29T16:53:46.811Z,3.77
2022-08-29T16:56:14.646Z,3.70
2022-08-29T16:58:59.429Z,3.60
2022-08-29T17:01:27.454Z,3.63
2022-08-29T17:03:54.272Z,3.40
2022-08-29T17:06:21.209Z,3.40
2022-08-29T17:08:48.022Z,3.17
2022-08-29T17:11:14.825Z,3.53
2022-08-29T17:13:41.744Z,3.30
2022-08-29T17:16:09.400Z,4.00
2022-08-29T17:18:37.143Z,3.55
2022-08-29T17:21:04.048Z,3.57
2022-08-29T17:23:31.564Z,3.63
2022-08-29T17:26:00.080Z,4.43
2022-08-29T17:28:27.386Z,3.70
2022-08-29T17:30:54.801Z,3.90
2022-08-29T17:33:21.996Z,3.27
2022-08-29T17:35:48.986Z,3.97
2022-08-29T17:38:16.444Z,3.60
2022-08-29T17:40:43.727Z,4.00
2022-08-29T17:43:10.702Z,3.77
2022-08-29T17:45:38.699Z,3.60
2022-08-29T17:48:05.645Z,4.03
2022-08-29T17:50:34.306Z,3.93
2022-08-29T17:53:01.347Z,4.17
2022-08-29T17:55:30.093Z,3.83
2022-08-29T17:57:58.160Z,4.23
2022-08-29T18:00:25.561Z,4.07
2022-08-29T18:02:52.649Z,4.63
2022-08-29T18:05:19.751Z,4.63
2022-08-29T18:07:46.551Z,4.37
2022-08-29T18:10:14.501Z,4.20
2022-08-29T18:12:41.367Z,4.50
2022-08-29T18:15:09.558Z,4.00
2022-08-29T18:17:37.043Z,4.57
2022-08-29T18:20:04.871Z,4.33
2022-08-29T18:22:31.966Z,4.73
2022-08-29T18:24:59.000Z,4.50
2022-08-29T18:27:26.952Z,4.10
2022-08-29T18:29:54.578Z,4.40
2022-08-29T18:32:22.597Z,4.27
2022-08-29T18:34:49.335Z,3.80
2022-08-29T18:37:16.178Z,4.10
2022-08-29T18:39:43.242Z,4.73
2022-08-29T18:42:24.717Z,3.80
2022-08-29T18:44:56.911Z,4.10
2022-08-29T18:47:23.753Z,4.17
2022-08-29T18:50:09.234Z,4.20
2022-08-29T18:52:36.455Z,5.53
2022-08-29T18:55:04.106Z,4.63
2022-08-29T18:57:30.978Z,4.83
2022-08-29T18:59:57.704Z,5.00
2022-08-29T19:02:25.561Z,4.73
2022-08-29T19:04:52.563Z,5.37
2022-08-29T19:07:24.060Z,4.93
2022-08-29T19:09:52.944Z,5.27
2022-08-29T19:12:21.254Z,4.60
2022-08-29T19:14:48.640Z,4.80
2022-08-29T19:17:17.454Z,4.53
2022-08-29T19:20:02.984Z,4.57
2022-08-29T19:22:37.616Z,4.70
2022-08-29T19:25:05.931Z,4.53
2022-08-29T19:27:43.173Z,4.83
2022-08-29T19:30:11.600Z,4.43
2022-08-29T19:32:39.119Z,5.03
2022-08-29T19:35:06.163Z,4.60
2022-08-29T19:37:33.177Z,4.50
2022-08-29T19:40:00.088Z,4.40
2022-08-29T19:42:28.235Z,4.60
2022-08-29T19:44:55.271Z,4.40
2022-08-29T19:47:23.383Z,4.70
2022-08-29T19:49:50.986Z,5.10
2022-08-29T19:52:17.935Z,4.70
2022-08-29T19:54:44.923Z,5.23
2022-08-29T19:57:14.814Z,5.77
2022-08-29T19:59:42.257Z,6.07
2022-08-29T20:02:10.671Z,5.90
2022-08-29T20:04:37.827Z,5.63
2022-08-29T20:07:05.427Z,5.53
2022-08-29T20:09:32.315Z,5.33
2022-08-29T20:12:00.291Z,4.97
2022-08-29T20:14:27.415Z,4.60
2022-08-29T20:16:54.351Z,5.30
2022-08-29T20:19:21.452Z,4.90
2022-08-29T20:21:48.757Z,5.27
2022-08-29T20:24:16.533Z,4.90
2022-08-29T20:26:44.887Z,5.03
2022-08-29T20:29:11.991Z,4.73
2022-08-29T20:31:39.791Z,4.73
2022-08-29T20:34:06.904Z,4.87
2022-08-29T20:36:52.629Z,5.47
2022-08-29T20:39:19.965Z,5.20
2022-08-29T20:41:47.998Z,5.03
2022-08-29T20:44:18.207Z,5.73
2022-08-29T20:46:45.246Z,4.90
2022-08-29T20:49:13.381Z,4.63
2022-08-29T20:51:43.936Z,5.17
2022-08-29T20:54:11.537Z,5.03
2022-08-29T20:56:38.578Z,5.30
2022-08-29T20:59:05.361Z,5.23
2022-08-29T21:01:32.192Z,5.17
2022-08-29T21:04:21.021Z,6.00
2022-08-29T21:06:49.336Z,5.03
2022-08-29T21:09:16.218Z,5.60
2022-08-29T21:11:43.169Z,5.03
2022-08-29T21:14:10.198Z,5.20
2022-08-29T21:16:37.462Z,5.40
2022-08-29T21:19:09.515Z,4.90
2022-08-29T21:21:37.007Z,5.00
2022-08-29T21:24:06.042Z,5.00
2022-08-29T21:26:33.817Z,4.70
2022-08-29T21:29:01.494Z,5.33
2022-08-29T21:31:28.452Z,5.20
2022-08-29T21:33:55.493Z,5.13
2022-08-29T21:36:25.136Z,4.80
2022-08-29T21:38:54.260Z,5.23
2022-08-29T21:41:22.165Z,5.00
2022-08-29T21:43:49.014Z,5.33
2022-08-29T21:46:17.580Z,5.27
2022-08-29T21:48:44.989Z,5.73
2022-08-29T21:51:12.991Z,5.97
2022-08-29T21:53:41.616Z,4.87
2022-08-29T21:56:08.713Z,5.30
2022-08-29T21:58:35.559Z,5.67
2022-08-29T22:01:02.498Z,5.30
2022-08-29T22:03:29.388Z,5.93
2022-08-29T22:05:56.424Z,5.57
2022-08-29T22:08:23.405Z,6.33
2022-08-29T22:10:50.180Z,6.07
2022-08-29T22:13:17.225Z,6.23
2022-08-29T22:16:02.650Z,5.77
2022-08-29T22:18:29.592Z,5.63
2022-08-29T22:21:00.317Z,5.93
2022-08-29T22:23:27.231Z,5.70
2022-08-29T22:25:55.075Z,5.53
2022-08-29T22:28:22.154Z,5.63
2022-08-29T22:30:49.152Z,5.73
2022-08-29T22:33:16.650Z,6.47
2022-08-29T22:35:43.614Z,6.30
2022-08-29T22:38:10.728Z,5.80
2022-08-29T22:40:37.727Z,5.50
2022-08-29T22:43:04.531Z,6.23
2022-08-29T22:45:32.222Z,7.50
2022-08-29T22:47:59.553Z,6.83
2022-08-29T22:50:26.888Z,6.83
2022-08-29T22:52:57.283Z,6.20
2022-08-29T22:57:50.242Z,6.70
2022-08-29T23:00:19.246Z,7.10
2022-08-29T23:02:46.985Z,6.00
2022-08-29T23:05:14.754Z,6.70
2022-08-29T23:07:41.690Z,6.10
2022-08-29T23:10:09.270Z,6.20
2022-08-29T23:12:36.211Z,6.50
2022-08-29T23:15:07.989Z,6.47
2022-08-29T23:17:34.810Z,5.73
2022-08-29T23:20:01.807Z,6.30
2022-08-29T23:22:28.599Z,5.53
2022-08-29T23:24:58.484Z,5.43
2022-08-29T23:27:27.072Z,5.33
2022-08-29T23:29:53.894Z,5.20
2022-08-29T23:32:20.684Z,5.50
2022-08-29T23:34:47.565Z,6.03
2022-08-29T23:37:14.318Z,5.47
2022-08-29T23:39:41.070Z,5.37
2022-08-29T23:42:07.919Z,4.97
2022-08-29T23:44:35.689Z,5.20
2022-08-29T23:47:02.605Z,5.27
2022-08-29T23:49:29.443Z,5.57
2022-08-29T23:51:56.312Z,5.00
2022-08-29T23:54:23.177Z,5.13
2022-08-29T23:56:50.028Z,5.37
2022-08-29T23:59:40.785Z,4.73
